createdAt,value
2023-02-21T00:00:48.388Z,16.65
2023-02-21T00:03:33.625Z,17.93
2023-02-21T00:06:18.726Z,16.92
2023-02-21T00:09:03.488Z,17.55
2023-02-21T00:11:48.545Z,17.88
2023-02-21T00:14:33.282Z,17.75
2023-02-21T00:17:18.434Z,16.47
2023-02-21T00:20:03.624Z,16.80
2023-02-21T00:22:48.658Z,17.45
2023-02-21T00:25:33.582Z,18.67
2023-02-21T00:28:20.225Z,17.75
2023-02-21T00:31:05.249Z,17.10
2023-02-21T00:33:53.578Z,18.38
2023-02-21T00:36:38.633Z,17.30
2023-02-21T00:39:23.477Z,17.30
2023-02-21T00:42:08.607Z,17.40
2023-02-21T00:44:53.569Z,17.33
2023-02-21T00:47:38.680Z,17.77
2023-02-21T00:50:24.088Z,17.42
2023-02-21T00:53:09.117Z,17.95
2023-02-21T00:55:54.443Z,16.98
2023-02-21T00:58:40.596Z,16.87
2023-02-21T01:01:25.804Z,17.63
2023-02-21T01:04:10.710Z,17.92
2023-02-21T01:06:55.733Z,17.67
2023-02-21T01:09:40.441Z,16.27
2023-02-21T01:12:25.620Z,18.23
2023-02-21T01:15:10.792Z,17.83
2023-02-21T01:17:55.833Z,17.17
2023-02-21T01:20:40.693Z,17.20
2023-02-21T01:23:25.443Z,17.25
2023-02-21T01:26:10.524Z,16.63
2023-02-21T01:28:55.413Z,15.82
2023-02-21T01:31:40.370Z,16.38
2023-02-21T01:34:25.237Z,15.38
2023-02-21T01:37:11.288Z,18.15
2023-02-21T01:39:57.121Z,17.50
2023-02-21T01:42:42.102Z,17.63
2023-02-21T01:46:22.817Z,17.35
2023-02-21T01:49:10.183Z,17.77
2023-02-21T01:51:59.346Z,17.73
2023-02-21T01:54:48.636Z,16.20
2023-02-21T01:57:35.856Z,16.13
2023-02-21T02:00:26.236Z,16.58
2023-02-21T02:03:17.570Z,16.40
2023-02-21T02:06:07.477Z,15.63
2023-02-21T02:08:53.916Z,15.87
2023-02-21T02:11:39.038Z,15.90
2023-02-21T02:14:26.809Z,16.35
2023-02-21T02:17:11.823Z,16.42
2023-02-21T02:20:01.146Z,15.15
2023-02-21T02:22:51.992Z,14.80
2023-02-21T02:25:27.509Z,14.13
2023-02-21T02:28:09.871Z,13.57
2023-02-21T02:30:39.437Z,14.60
2023-02-21T02:33:43.579Z,14.43
2023-02-21T02:36:28.492Z,15.13
2023-02-21T02:39:18.278Z,13.88
2023-02-21T02:42:05.020Z,13.10
2023-02-21T02:44:41.057Z,13.98
2023-02-21T02:47:19.715Z,13.32
2023-02-21T02:49:48.016Z,12.80
2023-02-21T02:52:14.466Z,12.32
2023-02-21T02:54:40.873Z,12.85
2023-02-21T02:57:12.941Z,12.90
2023-02-21T02:59:45.709Z,12.95
2023-02-21T03:02:21.469Z,11.93
2023-02-21T03:05:01.603Z,11.98
2023-02-21T03:07:58.553Z,13.93
2023-02-21T03:10:35.476Z,11.45
2023-02-21T03:13:14.034Z,12.30
2023-02-21T03:15:50.470Z,13.93
2023-02-21T03:18:42.020Z,13.18
2023-02-21T03:21:14.370Z,12.98
2023-02-21T03:23:43.594Z,11.10
2023-02-21T03:26:13.415Z,9.90
2023-02-21T03:28:41.445Z,9.73
2023-02-21T03:31:12.090Z,10.50
2023-02-21T03:33:38.818Z,10.15
2023-02-21T03:36:06.526Z,9.27
2023-02-21T03:38:34.312Z,10.38
2023-02-21T03:41:01.368Z,11.30
2023-02-21T03:43:27.852Z,9.68
2023-02-21T03:45:54.297Z,10.23
2023-02-21T03:48:31.619Z,10.20
2023-02-21T03:50:59.410Z,10.07
2023-02-21T03:53:25.976Z,11.93
2023-02-21T03:55:52.368Z,11.02
2023-02-21T03:58:18.820Z,10.77
2023-02-21T04:00:45.368Z,9.90
2023-02-21T04:03:11.987Z,8.88
2023-02-21T04:05:38.547Z,8.37
2023-02-21T04:08:05.867Z,9.02
2023-02-21T04:10:35.808Z,9.07
2023-02-21T04:13:04.961Z,8.82
2023-02-21T04:15:31.439Z,10.20
2023-02-21T04:17:57.907Z,9.50
2023-02-21T04:20:25.338Z,8.82
2023-02-21T04:23:02.903Z,8.15
2023-02-21T04:25:30.172Z,8.98
2023-02-21T04:27:56.614Z,9.45
2023-02-21T04:30:23.208Z,8.90
2023-02-21T04:32:49.638Z,7.97
2023-02-21T04:35:16.433Z,8.13
2023-02-21T04:37:44.986Z,9.05
2023-02-21T04:40:11.817Z,8.05
2023-02-21T04:42:38.324Z,8.83
2023-02-21T04:45:04.957Z,9.90
2023-02-21T04:47:31.447Z,9.15
2023-02-21T04:49:58.687Z,10.07
2023-02-21T04:52:25.176Z,12.27
2023-02-21T04:54:51.740Z,10.93
2023-02-21T04:57:18.291Z,9.68
2023-02-21T04:59:44.818Z,8.38
2023-02-21T05:02:11.384Z,7.57
2023-02-21T05:04:38.329Z,7.00
2023-02-21T05:07:05.709Z,6.37
2023-02-21T05:09:32.368Z,8.25
2023-02-21T05:11:58.770Z,7.15
2023-02-21T05:14:25.221Z,11.23
2023-02-21T05:16:51.799Z,7.25
2023-02-21T05:19:27.496Z,7.67
2023-02-21T05:21:56.533Z,6.90
2023-02-21T05:24:24.384Z,6.30
2023-02-21T05:26:52.023Z,7.05
2023-02-21T05:29:19.236Z,7.57
2023-02-21T05:31:47.113Z,7.73
2023-02-21T05:34:15.297Z,7.70
2023-02-21T05:36:42.186Z,8.10
2023-02-21T05:39:09.564Z,8.25
2023-02-21T05:41:36.310Z,8.35
2023-02-21T05:44:04.154Z,8.57
2023-02-21T05:46:33.760Z,8.23
2023-02-21T05:49:01.884Z,8.88
2023-02-21T05:51:34.260Z,8.50
2023-02-21T05:54:00.760Z,8.60
2023-02-21T05:56:27.303Z,8.43
2023-02-21T05:58:53.805Z,8.60
2023-02-21T06:01:20.397Z,6.95
2023-02-21T06:03:46.927Z,7.70
2023-02-21T06:06:15.895Z,7.40
2023-02-21T06:08:44.304Z,8.37
2023-02-21T06:11:11.333Z,7.80
2023-02-21T06:13:37.748Z,7.78
2023-02-21T06:16:04.460Z,7.03
2023-02-21T06:18:30.945Z,7.90
2023-02-21T06:20:57.320Z,7.40
2023-02-21T06:23:23.742Z,7.45
2023-02-21T06:25:50.143Z,8.27
2023-02-21T06:28:16.547Z,7.80
2023-02-21T06:30:43.121Z,8.00
2023-02-21T06:33:09.731Z,7.97
2023-02-21T06:35:36.407Z,7.53
2023-02-21T06:38:02.854Z,8.50
2023-02-21T06:40:29.303Z,9.13
2023-02-21T06:42:55.761Z,8.82
2023-02-21T06:45:22.173Z,8.20
2023-02-21T06:47:48.626Z,8.00
2023-02-21T06:50:15.115Z,7.88
2023-02-21T06:52:41.658Z,7.68
2023-02-21T06:55:08.049Z,7.80
2023-02-21T06:57:34.588Z,8.00
2023-02-21T07:00:01.156Z,7.22
2023-02-21T07:02:27.674Z,7.38
2023-02-21T07:04:54.097Z,8.18
2023-02-21T07:07:21.686Z,7.90
2023-02-21T07:09:48.144Z,8.07
2023-02-21T07:12:14.899Z,8.00
2023-02-21T07:14:41.372Z,7.88
2023-02-21T07:17:07.832Z,7.50
2023-02-21T07:19:34.482Z,8.50
2023-02-21T07:22:00.911Z,7.57
2023-02-21T07:24:27.559Z,19.67
2023-02-21T07:26:54.012Z,9.32
2023-02-21T07:29:20.571Z,7.50
2023-02-21T07:31:47.082Z,7.57
2023-02-21T07:34:15.084Z,7.87
2023-02-21T07:36:41.687Z,7.70
2023-02-21T07:39:08.203Z,7.75
2023-02-21T07:41:34.643Z,7.05
2023-02-21T07:44:01.171Z,7.38
2023-02-21T07:46:28.721Z,7.50
2023-02-21T07:48:55.562Z,7.13
2023-02-21T07:51:22.131Z,7.43
2023-02-21T07:53:48.588Z,7.57
2023-02-21T07:56:15.077Z,7.28
2023-02-21T07:58:41.645Z,7.70
2023-02-21T08:01:11.070Z,7.60
2023-02-21T08:03:37.912Z,7.90
2023-02-21T08:06:05.049Z,7.47
2023-02-21T08:08:31.528Z,7.82
2023-02-21T08:10:58.155Z,8.20
2023-02-21T08:13:24.573Z,7.68
2023-02-21T08:15:51.172Z,7.63
2023-02-21T08:18:24.058Z,8.23
2023-02-21T08:20:55.472Z,8.02
2023-02-21T08:23:21.969Z,8.53
2023-02-21T08:25:48.484Z,7.75
2023-02-21T08:28:15.981Z,8.52
2023-02-21T08:30:42.495Z,8.52
2023-02-21T08:33:09.190Z,7.90
2023-02-21T08:35:35.658Z,8.20
2023-02-21T08:38:05.331Z,8.00
2023-02-21T08:40:31.851Z,8.93
2023-02-21T08:43:00.405Z,8.52
2023-02-21T08:45:28.604Z,8.25
2023-02-21T08:47:56.015Z,7.27
2023-02-21T08:50:25.468Z,7.30
2023-02-21T08:52:52.457Z,8.00
2023-02-21T08:55:20.165Z,6.55
2023-02-21T08:57:51.742Z,7.68
2023-02-21T09:00:23.225Z,7.97
2023-02-21T09:02:52.756Z,7.78
2023-02-21T09:05:26.903Z,7.40
2023-02-21T09:08:01.487Z,8.05
2023-02-21T09:10:29.986Z,7.60
2023-02-21T09:12:56.645Z,7.70
2023-02-21T09:15:23.037Z,7.55
2023-02-21T09:17:50.891Z,7.50
2023-02-21T09:20:20.718Z,8.05
2023-02-21T09:22:47.566Z,7.57
2023-02-21T09:25:18.067Z,7.57
2023-02-21T09:27:44.714Z,7.53
2023-02-21T09:30:17.874Z,7.63
2023-02-21T09:32:44.687Z,7.05
2023-02-21T09:35:13.915Z,7.43
2023-02-21T09:37:42.461Z,7.63
2023-02-21T09:40:50.692Z,7.20
2023-02-21T09:43:28.499Z,6.45
2023-02-21T09:45:58.939Z,7.53
2023-02-21T09:48:26.658Z,7.05
2023-02-21T09:50:57.140Z,7.30
2023-02-21T09:53:29.770Z,6.85
2023-02-21T09:56:22.148Z,7.20
2023-02-21T09:58:49.428Z,6.97
2023-02-21T10:01:37.633Z,6.93
2023-02-21T10:04:21.743Z,6.87
2023-02-21T10:06:55.402Z,6.90
2023-02-21T10:09:27.722Z,6.88
2023-02-21T10:12:03.292Z,7.40
2023-02-21T10:14:43.530Z,7.47
2023-02-21T10:17:23.508Z,6.63
2023-02-21T10:19:59.226Z,6.97
2023-02-21T10:22:32.400Z,6.93
2023-02-21T10:24:59.552Z,7.55
2023-02-21T10:27:30.231Z,14.15
2023-02-21T10:30:10.318Z,7.30
2023-02-21T10:32:37.964Z,6.57
2023-02-21T10:35:04.908Z,5.85
2023-02-21T10:37:43.803Z,6.68
2023-02-21T10:40:30.843Z,7.00
2023-02-21T10:43:11.122Z,6.70
2023-02-21T10:46:01.766Z,6.82
2023-02-21T10:48:34.708Z,6.53
2023-02-21T10:51:11.864Z,6.65
2023-02-21T10:53:40.949Z,6.20
2023-02-21T10:56:14.908Z,6.60
2023-02-21T10:59:08.194Z,7.20
2023-02-21T11:01:54.165Z,6.35
2023-02-21T11:04:20.656Z,6.47
2023-02-21T11:07:08.746Z,6.70
2023-02-21T11:09:39.832Z,6.57
2023-02-21T11:12:18.669Z,6.47
2023-02-21T11:15:05.775Z,6.20
2023-02-21T11:17:33.211Z,6.50
2023-02-21T11:20:08.388Z,5.97
2023-02-21T11:22:35.269Z,5.35
2023-02-21T11:25:23.165Z,6.00
2023-02-21T11:28:21.842Z,6.15
2023-02-21T11:31:15.528Z,5.53
2023-02-21T11:33:52.115Z,6.07
2023-02-21T11:36:21.183Z,6.00
2023-02-21T11:39:18.689Z,5.50
2023-02-21T11:41:50.717Z,6.05
2023-02-21T11:44:26.087Z,6.10
2023-02-21T11:47:17.775Z,5.63
2023-02-21T11:49:56.522Z,5.78
2023-02-21T11:52:29.682Z,5.43
2023-02-21T11:54:56.234Z,7.22
2023-02-21T11:57:35.805Z,6.97
2023-02-21T12:00:34.078Z,7.07
2023-02-21T12:03:31.047Z,7.07
2023-02-21T12:06:05.046Z,7.30
2023-02-21T12:09:02.172Z,7.00
2023-02-21T12:11:55.802Z,7.78
2023-02-21T12:14:41.014Z,6.88
2023-02-21T12:17:38.711Z,7.88
2023-02-21T12:20:11.658Z,6.83
2023-02-21T12:22:53.100Z,7.28
2023-02-21T12:25:29.373Z,7.10
2023-02-21T12:28:05.697Z,7.55
2023-02-21T12:31:00.090Z,7.53
2023-02-21T12:33:46.816Z,7.37
2023-02-21T12:36:34.832Z,7.63
2023-02-21T12:39:11.801Z,6.97
2023-02-21T12:41:50.350Z,6.88
2023-02-21T12:44:27.085Z,7.03
2023-02-21T12:47:05.552Z,6.40
2023-02-21T12:49:59.896Z,6.68
2023-02-21T12:52:47.862Z,7.50
2023-02-21T12:55:21.140Z,6.68
2023-02-21T12:58:22.413Z,7.03
2023-02-21T13:01:15.870Z,6.47
2023-02-21T13:04:00.537Z,6.38
2023-02-21T13:06:32.818Z,5.82
2023-02-21T13:09:29.629Z,6.65
2023-02-21T13:12:06.850Z,6.80
2023-02-21T13:15:00.655Z,6.07
2023-02-21T13:17:27.748Z,6.43
2023-02-21T13:20:08.540Z,6.78
2023-02-21T13:23:31.492Z,7.47
2023-02-21T13:26:23.905Z,7.70
2023-02-21T13:28:57.955Z,7.70
2023-02-21T13:31:37.274Z,6.85
2023-02-21T13:34:07.786Z,7.10
2023-02-21T13:36:42.926Z,7.00
2023-02-21T13:39:09.402Z,7.07
2023-02-21T13:41:40.758Z,7.40
2023-02-21T13:44:10.906Z,6.57
2023-02-21T13:46:37.471Z,7.45
2023-02-21T13:49:47.759Z,7.18
2023-02-21T13:52:22.390Z,6.85
2023-02-21T13:55:10.718Z,6.10
2023-02-21T13:57:54.203Z,6.00
2023-02-21T14:00:29.634Z,6.60
2023-02-21T14:03:12.562Z,6.75
2023-02-21T14:05:45.395Z,6.53
2023-02-21T14:08:42.822Z,6.30
2023-02-21T14:11:13.181Z,5.97
2023-02-21T14:13:42.449Z,6.40
2023-02-21T14:16:11.756Z,5.85
2023-02-21T14:18:51.323Z,5.75
2023-02-21T14:21:34.545Z,5.70
2023-02-21T14:24:02.073Z,5.30
2023-02-21T14:26:40.771Z,5.10
2023-02-21T14:29:07.282Z,5.15
2023-02-21T14:31:48.261Z,5.55
2023-02-21T14:34:22.805Z,4.23
2023-02-21T14:36:52.410Z,4.50
2023-02-21T14:39:19.632Z,4.47
2023-02-21T14:42:03.499Z,4.75
2023-02-21T14:44:59.551Z,4.78
2023-02-21T14:47:46.632Z,5.10
2023-02-21T14:50:21.261Z,4.90
2023-02-21T14:52:53.862Z,4.85
2023-02-21T14:55:38.945Z,4.88
2023-02-21T14:58:39.311Z,5.10
2023-02-21T15:01:46.540Z,4.70
2023-02-21T15:04:26.140Z,5.22
2023-02-21T15:07:15.525Z,5.22
2023-02-21T15:09:42.116Z,5.50
2023-02-21T15:12:15.196Z,5.53
2023-02-21T15:14:49.841Z,5.90
2023-02-21T15:17:25.585Z,4.85
2023-02-21T15:20:13.650Z,5.55
2023-02-21T15:22:40.089Z,7.78
2023-02-21T15:25:09.474Z,6.15
2023-02-21T15:27:54.286Z,5.33
2023-02-21T15:30:23.100Z,4.80
2023-02-21T15:33:10.617Z,4.72
2023-02-21T15:35:40.322Z,4.32
2023-02-21T15:38:30.840Z,3.92
2023-02-21T15:41:03.132Z,4.40
2023-02-21T15:43:32.589Z,3.80
2023-02-21T15:46:01.768Z,3.90
2023-02-21T15:48:28.797Z,3.58
2023-02-21T15:51:03.061Z,3.40
2023-02-21T15:53:29.534Z,3.53
2023-02-21T15:56:16.329Z,3.65
2023-02-21T15:59:12.957Z,3.15
2023-02-21T16:01:40.359Z,3.38
2023-02-21T16:04:23.460Z,3.45
2023-02-21T16:06:52.191Z,5.40
2023-02-21T16:09:31.392Z,3.30
2023-02-21T16:12:06.272Z,2.95
2023-02-21T16:14:41.958Z,3.42
2023-02-21T16:17:22.552Z,3.58
2023-02-21T16:19:53.797Z,3.10
2023-02-21T16:22:34.148Z,3.50
2023-02-21T16:25:11.246Z,3.30
2023-02-21T16:27:44.045Z,3.33
2023-02-21T16:30:35.932Z,3.10
2023-02-21T16:33:05.382Z,3.87
2023-02-21T16:35:32.776Z,3.90
2023-02-21T16:38:00.720Z,3.78
2023-02-21T16:40:33.883Z,3.42
2023-02-21T16:43:01.984Z,4.10
2023-02-21T16:45:30.136Z,3.80
2023-02-21T16:48:02.350Z,3.40
2023-02-21T16:50:30.977Z,2.95
2023-02-21T16:52:58.376Z,3.28
2023-02-21T16:55:25.353Z,3.80
2023-02-21T16:57:55.181Z,3.40
2023-02-21T17:00:22.172Z,4.00
2023-02-21T17:02:50.727Z,3.00
2023-02-21T17:05:18.606Z,3.50
2023-02-21T17:07:45.283Z,2.95
2023-02-21T17:10:13.037Z,3.60
2023-02-21T17:12:39.553Z,2.72
2023-02-21T17:15:06.398Z,2.50
2023-02-21T17:17:32.983Z,2.50
2023-02-21T17:19:59.752Z,2.25
2023-02-21T17:22:26.248Z,3.30
2023-02-21T17:24:53.055Z,3.22
2023-02-21T17:27:19.571Z,6.05
2023-02-21T17:29:48.282Z,4.53
2023-02-21T17:32:16.453Z,4.80
2023-02-21T17:34:43.509Z,2.90
2023-02-21T17:37:09.975Z,2.60
2023-02-21T17:39:36.494Z,7.90
2023-02-21T17:42:03.470Z,4.00
2023-02-21T17:44:30.405Z,2.65
2023-02-21T17:46:57.856Z,2.97
2023-02-21T17:49:27.427Z,2.40
2023-02-21T17:51:54.849Z,2.70
2023-02-21T17:54:24.105Z,2.55
2023-02-21T17:56:51.216Z,4.05
2023-02-21T17:59:18.815Z,3.10
2023-02-21T18:01:45.556Z,2.83
2023-02-21T18:04:13.672Z,3.35
2023-02-21T18:06:41.218Z,2.55
2023-02-21T18:09:07.780Z,2.83
2023-02-21T18:11:37.758Z,2.83
2023-02-21T18:14:05.143Z,5.30
2023-02-21T18:16:32.145Z,2.70
2023-02-21T18:18:59.061Z,3.90
2023-02-21T18:21:28.038Z,4.15
2023-02-21T18:23:54.557Z,3.83
2023-02-21T18:26:21.123Z,3.00
2023-02-21T18:28:47.578Z,3.20
2023-02-21T18:31:19.494Z,3.50
2023-02-21T18:33:46.430Z,4.00
2023-02-21T18:36:12.881Z,3.10
2023-02-21T18:38:41.072Z,2.40
2023-02-21T18:41:13.117Z,2.90
2023-02-21T18:43:40.729Z,2.90
2023-02-21T18:46:16.379Z,3.33
2023-02-21T18:48:47.856Z,2.97
2023-02-21T18:51:16.515Z,5.57
2023-02-21T18:53:43.843Z,6.30
2023-02-21T18:56:12.418Z,9.20
2023-02-21T18:58:39.740Z,10.48
2023-02-21T19:01:07.701Z,9.27
2023-02-21T19:03:34.905Z,8.02
2023-02-21T19:06:01.320Z,7.53
2023-02-21T19:08:27.861Z,6.28
2023-02-21T19:10:54.316Z,5.22
2023-02-21T19:13:20.779Z,5.47
2023-02-21T19:15:47.296Z,8.07
2023-02-21T19:18:13.865Z,8.70
2023-02-21T19:20:40.550Z,8.25
2023-02-21T19:23:07.429Z,7.15
2023-02-21T19:25:33.972Z,8.43
2023-02-21T19:28:01.181Z,8.98
2023-02-21T19:30:29.996Z,12.77
2023-02-21T19:33:00.690Z,8.05
2023-02-21T19:35:28.599Z,5.50
2023-02-21T19:37:55.861Z,3.90
2023-02-21T19:40:23.520Z,5.35
2023-02-21T19:42:50.364Z,5.85
2023-02-21T19:45:18.314Z,6.35
2023-02-21T19:47:46.024Z,8.20
2023-02-21T19:50:13.018Z,5.93
2023-02-21T19:52:39.901Z,6.30
2023-02-21T19:55:07.071Z,6.70
2023-02-21T19:57:33.930Z,6.70
2023-02-21T20:00:00.480Z,5.25
2023-02-21T20:02:27.175Z,12.13
2023-02-21T20:04:53.723Z,10.55
2023-02-21T20:07:21.237Z,19.38
2023-02-21T20:09:48.899Z,10.20
2023-02-21T20:12:18.009Z,4.35
2023-02-21T20:14:48.059Z,3.90
2023-02-21T20:17:15.183Z,4.63
2023-02-21T20:19:42.628Z,4.80
2023-02-21T20:22:09.213Z,5.25
2023-02-21T20:24:35.789Z,4.45
2023-02-21T20:27:03.506Z,5.43
2023-02-21T20:29:30.181Z,5.90
2023-02-21T20:31:58.726Z,5.22
2023-02-21T20:34:25.345Z,5.75
2023-02-21T20:36:52.160Z,7.20
2023-02-21T20:39:22.939Z,9.77
2023-02-21T20:41:49.582Z,7.35
2023-02-21T20:44:16.207Z,6.03
2023-02-21T20:46:42.752Z,4.00
2023-02-21T20:49:14.056Z,4.53
2023-02-21T20:51:42.945Z,4.87
2023-02-21T20:54:14.388Z,5.82
2023-02-21T20:56:41.767Z,4.90
2023-02-21T20:59:15.866Z,7.50
2023-02-21T21:01:50.014Z,6.95
2023-02-21T21:04:19.265Z,7.47
2023-02-21T21:06:48.111Z,5.40
2023-02-21T21:09:18.412Z,8.32
2023-02-21T21:11:46.314Z,8.02
2023-02-21T21:14:17.443Z,8.30
2023-02-21T21:16:44.760Z,7.93
2023-02-21T21:19:11.665Z,9.43
2023-02-21T21:21:38.614Z,31.65
2023-02-21T21:24:07.307Z,46.30
2023-02-21T21:26:34.081Z,34.67
2023-02-21T21:29:01.506Z,26.93
2023-02-21T21:31:28.209Z,22.48
2023-02-21T21:33:56.447Z,15.93
2023-02-21T21:36:23.076Z,14.80
2023-02-21T21:38:49.521Z,12.60
2023-02-21T21:41:16.399Z,18.10
2023-02-21T21:43:44.038Z,10.80
2023-02-21T21:46:12.930Z,11.23
2023-02-21T21:48:43.793Z,8.90
2023-02-21T21:51:11.592Z,9.88
2023-02-21T21:53:41.405Z,7.33
2023-02-21T21:56:08.463Z,6.40
2023-02-21T21:58:35.055Z,6.50
2023-02-21T22:01:05.355Z,12.15
2023-02-21T22:03:31.978Z,8.57
2023-02-21T22:06:00.665Z,10.27
2023-02-21T22:08:28.403Z,10.98
2023-02-21T22:10:55.030Z,12.35
2023-02-21T22:13:21.728Z,9.70
2023-02-21T22:15:48.954Z,7.35
2023-02-21T22:18:19.838Z,6.47
2023-02-21T22:20:50.245Z,6.22
2023-02-21T22:23:21.037Z,5.72
2023-02-21T22:25:48.436Z,6.60
2023-02-21T22:28:14.935Z,8.95
2023-02-21T22:30:41.719Z,8.40
2023-02-21T22:33:13.519Z,8.02
2023-02-21T22:35:41.297Z,8.32
2023-02-21T22:38:14.087Z,6.30
2023-02-21T22:40:41.546Z,7.43
2023-02-21T22:43:10.890Z,6.10
2023-02-21T22:45:37.807Z,5.50
2023-02-21T22:48:07.182Z,5.80
2023-02-21T22:50:37.550Z,6.07
2023-02-21T22:53:08.343Z,6.20
2023-02-21T22:55:39.705Z,6.37
2023-02-21T22:58:09.264Z,8.80
2023-02-21T23:00:37.924Z,11.75
2023-02-21T23:03:14.729Z,8.88
2023-02-21T23:05:50.083Z,7.65
2023-02-21T23:08:19.712Z,7.33
2023-02-21T23:10:47.675Z,8.43
2023-02-21T23:13:20.238Z,7.63
2023-02-21T23:15:47.755Z,7.90
2023-02-21T23:18:20.275Z,7.55
2023-02-21T23:20:48.564Z,7.10
2023-02-21T23:23:15.206Z,7.93
2023-02-21T23:25:41.718Z,7.47
2023-02-21T23:28:12.117Z,7.20
2023-02-21T23:30:42.669Z,6.18
2023-02-21T23:33:15.836Z,7.30
2023-02-21T23:35:44.259Z,6.78
2023-02-21T23:38:17.786Z,7.13
2023-02-21T23:40:49.971Z,7.15
2023-02-21T23:43:18.346Z,6.80
2023-02-21T23:45:48.148Z,7.10
2023-02-21T23:48:15.839Z,6.70
2023-02-21T23:50:46.886Z,7.22
2023-02-21T23:53:19.905Z,6.90
2023-02-21T23:55:47.477Z,7.13
2023-02-21T23:58:17.366Z,6.23
